createdAt,value
2022-11-16T00:01:06.854Z,9.77
2022-11-16T00:03:34.016Z,9.45
2022-11-16T00:06:04.047Z,9.82
2022-11-16T00:08:36.518Z,9.90
2022-11-16T00:11:09.210Z,10.02
2022-11-16T00:13:37.050Z,9.82
2022-11-16T00:16:04.928Z,9.73
2022-11-16T00:18:32.385Z,10.90
2022-11-16T00:20:59.538Z,10.68
2022-11-16T00:23:26.489Z,10.60
2022-11-16T00:25:53.329Z,10.38
2022-11-16T00:28:20.068Z,10.70
2022-11-16T00:30:47.014Z,10.68
2022-11-16T00:33:16.410Z,10.88
2022-11-16T00:35:43.138Z,12.75
2022-11-16T00:38:09.885Z,10.93
2022-11-16T00:40:36.696Z,10.45
2022-11-16T00:43:03.390Z,11.05
2022-11-16T00:45:30.221Z,10.27
2022-11-16T00:48:00.448Z,10.52
2022-11-16T00:50:27.539Z,10.05
2022-11-16T00:52:54.554Z,11.68
2022-11-16T00:55:21.348Z,10.63
2022-11-16T00:57:48.196Z,9.82
2022-11-16T01:00:15.519Z,10.32
2022-11-16T01:02:42.407Z,10.85
2022-11-16T01:05:10.132Z,10.52
2022-11-16T01:07:38.810Z,11.50
2022-11-16T01:10:08.301Z,10.98
2022-11-16T01:12:35.226Z,11.52
2022-11-16T01:15:02.198Z,11.20
2022-11-16T01:17:28.986Z,11.52
2022-11-16T01:19:56.046Z,11.57
2022-11-16T01:22:22.939Z,11.82
2022-11-16T01:24:49.739Z,11.93
2022-11-16T01:27:16.462Z,11.52
2022-11-16T01:29:43.297Z,11.25
2022-11-16T01:32:09.966Z,10.98
2022-11-16T01:34:36.776Z,10.73
2022-11-16T01:37:03.435Z,10.25
2022-11-16T01:39:30.165Z,10.43
2022-11-16T01:41:56.889Z,12.80
2022-11-16T01:44:32.986Z,12.45
2022-11-16T01:46:59.967Z,11.45
2022-11-16T01:49:30.730Z,11.45
2022-11-16T01:52:10.734Z,11.77
2022-11-16T01:54:40.424Z,12.25
2022-11-16T01:57:11.857Z,11.82
2022-11-16T01:59:40.405Z,12.50
2022-11-16T02:02:07.184Z,12.43
2022-11-16T02:04:33.890Z,11.90
2022-11-16T02:07:19.253Z,12.65
2022-11-16T02:09:54.463Z,12.70
2022-11-16T02:12:46.103Z,12.50
2022-11-16T02:15:38.132Z,13.43
2022-11-16T02:18:28.578Z,12.82
2022-11-16T02:21:05.738Z,12.70
2022-11-16T02:24:08.122Z,12.90
2022-11-16T02:27:16.178Z,12.80
2022-11-16T02:29:46.090Z,13.45
2022-11-16T02:32:23.300Z,13.07
2022-11-16T02:35:18.959Z,14.13
2022-11-16T02:38:04.030Z,12.88
2022-11-16T02:40:33.226Z,12.80
2022-11-16T02:43:08.533Z,13.07
2022-11-16T02:45:40.382Z,12.20
2022-11-16T02:48:31.279Z,12.13
2022-11-16T02:50:58.404Z,12.25
2022-11-16T02:53:25.729Z,11.98
2022-11-16T02:55:52.481Z,12.23
2022-11-16T02:58:23.687Z,11.73
2022-11-16T03:01:12.316Z,11.43
2022-11-16T03:03:46.286Z,12.27
2022-11-16T03:06:24.721Z,11.27
2022-11-16T03:09:16.330Z,12.25
2022-11-16T03:11:59.305Z,12.18
2022-11-16T03:14:37.793Z,12.07
2022-11-16T03:17:10.011Z,12.18
2022-11-16T03:19:45.305Z,11.55
2022-11-16T03:22:22.932Z,11.25
2022-11-16T03:24:50.339Z,11.82
2022-11-16T03:27:51.480Z,13.52
2022-11-16T03:30:27.642Z,12.57
2022-11-16T03:33:00.135Z,11.63
2022-11-16T03:35:29.128Z,11.77
2022-11-16T03:37:58.269Z,11.50
2022-11-16T03:40:29.064Z,12.15
2022-11-16T03:42:56.421Z,11.82
2022-11-16T03:45:23.123Z,12.05
2022-11-16T03:47:49.792Z,12.82
2022-11-16T03:50:16.490Z,11.27
2022-11-16T03:52:43.512Z,12.10
2022-11-16T03:55:10.178Z,12.13
2022-11-16T03:57:36.919Z,11.27
2022-11-16T04:00:05.814Z,11.50
2022-11-16T04:02:32.545Z,10.63
2022-11-16T04:05:18.027Z,11.48
2022-11-16T04:08:03.505Z,11.73
2022-11-16T04:10:49.100Z,10.43
2022-11-16T04:13:37.104Z,10.20
2022-11-16T04:16:22.652Z,9.77
2022-11-16T04:19:07.849Z,11.20
2022-11-16T04:21:57.869Z,11.32
2022-11-16T04:24:28.330Z,11.05
2022-11-16T04:27:19.178Z,9.90
2022-11-16T04:29:46.379Z,9.88
2022-11-16T04:32:45.883Z,10.27
2022-11-16T04:35:31.309Z,10.15
2022-11-16T04:37:58.787Z,9.90
2022-11-16T04:40:30.240Z,10.00
2022-11-16T04:42:59.330Z,10.23
2022-11-16T04:45:46.387Z,10.55
2022-11-16T04:48:15.020Z,10.65
2022-11-16T04:50:42.498Z,10.90
2022-11-16T04:53:09.556Z,11.38
2022-11-16T04:55:36.368Z,11.85
2022-11-16T04:58:03.649Z,11.73
2022-11-16T05:00:30.411Z,12.55
2022-11-16T05:03:01.234Z,11.80
2022-11-16T05:05:28.704Z,13.23
2022-11-16T05:07:55.633Z,12.75
2022-11-16T05:10:22.579Z,13.57
2022-11-16T05:12:49.222Z,13.60
2022-11-16T05:15:17.657Z,13.82
2022-11-16T05:17:44.371Z,13.38
2022-11-16T05:20:29.997Z,14.40
2022-11-16T05:22:58.121Z,14.15
2022-11-16T05:25:25.231Z,13.55
2022-11-16T05:27:52.028Z,14.57
2022-11-16T05:30:18.785Z,14.75
2022-11-16T05:32:45.522Z,14.82
2022-11-16T05:35:12.178Z,14.88
2022-11-16T05:37:38.961Z,15.30
2022-11-16T05:40:06.370Z,15.00
2022-11-16T05:42:33.021Z,15.80
2022-11-16T05:44:59.685Z,15.77
2022-11-16T05:47:26.343Z,16.08
2022-11-16T05:49:52.976Z,15.80
2022-11-16T05:52:19.937Z,15.45
2022-11-16T05:54:46.676Z,15.90
2022-11-16T05:57:13.342Z,15.98
2022-11-16T05:59:40.042Z,17.77
2022-11-16T06:02:06.740Z,15.55
2022-11-16T06:04:34.050Z,14.88
2022-11-16T06:07:00.798Z,14.82
2022-11-16T06:09:27.562Z,16.02
2022-11-16T06:11:54.635Z,15.02
2022-11-16T06:14:21.324Z,15.95
2022-11-16T06:16:48.000Z,15.98
2022-11-16T06:19:14.686Z,14.98
2022-11-16T06:21:41.427Z,15.13
2022-11-16T06:24:09.419Z,16.63
2022-11-16T06:26:36.923Z,16.40
2022-11-16T06:29:04.095Z,15.63
2022-11-16T06:31:31.184Z,15.80
2022-11-16T06:33:58.103Z,16.38
2022-11-16T06:36:24.901Z,16.35
2022-11-16T06:38:51.605Z,15.55
2022-11-16T06:41:18.521Z,15.63
2022-11-16T06:43:45.292Z,15.68
2022-11-16T06:46:12.088Z,15.75
2022-11-16T06:48:38.893Z,15.70
2022-11-16T06:51:05.841Z,14.93
2022-11-16T06:53:32.513Z,14.80
2022-11-16T06:56:04.690Z,14.82
2022-11-16T06:58:32.267Z,15.45
2022-11-16T07:01:07.000Z,16.10
2022-11-16T07:03:33.681Z,15.98
2022-11-16T07:06:04.620Z,15.38
2022-11-16T07:08:31.599Z,15.95
2022-11-16T07:11:04.314Z,16.02
2022-11-16T07:13:32.927Z,16.92
2022-11-16T07:16:07.849Z,17.25
2022-11-16T07:18:37.023Z,19.08
2022-11-16T07:21:12.509Z,17.48
2022-11-16T07:23:39.859Z,17.35
2022-11-16T07:26:08.156Z,15.07
2022-11-16T07:28:35.066Z,16.27
2022-11-16T07:31:10.919Z,14.52
2022-11-16T07:33:38.028Z,15.75
2022-11-16T07:36:13.490Z,15.10
2022-11-16T07:38:40.585Z,15.35
2022-11-16T07:41:11.370Z,15.02
2022-11-16T07:43:39.860Z,15.75
2022-11-16T07:48:59.396Z,15.88
2022-11-16T07:51:26.094Z,15.02
2022-11-16T07:53:55.845Z,14.73
2022-11-16T07:56:22.783Z,14.73
2022-11-16T07:58:50.258Z,14.38
2022-11-16T08:01:18.372Z,14.57
2022-11-16T08:03:46.156Z,14.52
2022-11-16T08:06:16.912Z,14.68
2022-11-16T08:08:44.260Z,13.70
2022-11-16T08:11:12.591Z,15.85
2022-11-16T08:13:41.025Z,15.02
2022-11-16T08:16:13.895Z,14.48
2022-11-16T08:18:41.849Z,14.90
2022-11-16T08:21:11.280Z,15.57
2022-11-16T08:23:40.320Z,16.42
2022-11-16T08:26:14.352Z,15.30
2022-11-16T08:28:43.493Z,15.30
2022-11-16T08:31:13.519Z,16.13
2022-11-16T08:33:40.491Z,15.80
2022-11-16T08:36:13.791Z,15.80
2022-11-16T08:38:41.039Z,15.73
2022-11-16T08:41:08.259Z,15.15
2022-11-16T08:43:35.957Z,13.70
2022-11-16T08:46:03.243Z,15.77
2022-11-16T08:48:30.026Z,14.30
2022-11-16T08:51:20.488Z,14.10
2022-11-16T08:53:49.080Z,13.55
2022-11-16T08:56:18.264Z,15.38
2022-11-16T08:58:47.102Z,13.57
2022-11-16T09:01:19.502Z,14.85
2022-11-16T09:03:46.558Z,13.25
2022-11-16T09:06:14.045Z,13.23
2022-11-16T09:08:42.911Z,12.18
2022-11-16T09:11:13.096Z,11.75
2022-11-16T09:13:39.931Z,11.05
2022-11-16T09:16:07.062Z,11.18
2022-11-16T09:18:34.170Z,10.77
2022-11-16T09:21:03.696Z,11.13
2022-11-16T09:23:30.572Z,12.60
2022-11-16T09:26:04.401Z,13.82
2022-11-16T09:28:32.083Z,11.93
2022-11-16T09:31:02.307Z,15.73
2022-11-16T09:33:31.192Z,11.20
2022-11-16T09:36:07.169Z,10.98
2022-11-16T09:39:13.911Z,11.00
2022-11-16T09:41:59.805Z,10.60
2022-11-16T09:44:53.152Z,10.40
2022-11-16T09:47:23.920Z,10.50
2022-11-16T09:50:01.662Z,10.40
2022-11-16T09:52:43.276Z,10.73
2022-11-16T09:55:28.057Z,9.73
2022-11-16T10:00:26.088Z,7.97
2022-11-16T10:03:13.517Z,7.90
2022-11-16T10:06:03.281Z,6.90
2022-11-16T10:08:51.531Z,6.72
2022-11-16T10:11:48.980Z,5.75
2022-11-16T10:14:40.757Z,5.85
2022-11-16T10:17:31.043Z,5.13
2022-11-16T10:20:35.352Z,5.45
2022-11-16T10:23:19.781Z,6.40
2022-11-16T10:25:53.480Z,6.57
2022-11-16T10:28:58.947Z,5.93
2022-11-16T10:31:32.544Z,6.68
2022-11-16T10:34:01.743Z,5.50
2022-11-16T10:36:31.195Z,4.43
2022-11-16T10:39:00.284Z,3.65
2022-11-16T10:41:42.545Z,3.60
2022-11-16T10:44:19.495Z,1.90
2022-11-16T10:47:00.565Z,1.65
2022-11-16T10:49:50.309Z,1.70
2022-11-16T10:52:17.026Z,1.83
2022-11-16T10:54:44.580Z,1.60
2022-11-16T10:57:14.123Z,1.73
2022-11-16T10:59:45.192Z,1.60
2022-11-16T11:02:35.934Z,1.60
2022-11-16T11:05:16.255Z,1.15
2022-11-16T11:07:49.243Z,2.13
2022-11-16T11:10:42.778Z,2.30
2022-11-16T11:13:25.037Z,2.40
2022-11-16T11:15:51.987Z,1.77
2022-11-16T11:18:25.999Z,1.52
2022-11-16T11:21:20.970Z,1.60
2022-11-16T11:23:53.275Z,1.67
2022-11-16T11:26:34.679Z,1.17
2022-11-16T11:29:25.025Z,1.10
2022-11-16T11:32:01.252Z,2.03
2022-11-16T11:34:30.439Z,2.45
2022-11-16T11:37:01.399Z,1.30
2022-11-16T11:39:36.851Z,1.58
2022-11-16T11:42:20.760Z,1.20
2022-11-16T11:44:57.558Z,2.25
2022-11-16T11:48:02.181Z,1.75
2022-11-16T11:50:44.538Z,1.75
2022-11-16T11:53:23.319Z,1.70
2022-11-16T11:55:57.085Z,1.60
2022-11-16T11:58:29.574Z,1.50
2022-11-16T12:01:25.688Z,1.88
2022-11-16T12:03:55.596Z,1.67
2022-11-16T12:06:38.687Z,1.40
2022-11-16T12:09:07.855Z,1.27
2022-11-16T12:11:40.634Z,1.38
2022-11-16T12:14:29.253Z,1.20
2022-11-16T12:17:25.590Z,1.55
2022-11-16T12:19:59.497Z,1.58
2022-11-16T12:22:46.412Z,1.45
2022-11-16T12:25:26.471Z,1.58
2022-11-16T12:28:30.823Z,1.42
2022-11-16T12:31:28.525Z,0.85
2022-11-16T12:34:05.360Z,2.38
2022-11-16T12:36:49.335Z,1.40
2022-11-16T12:39:31.010Z,1.60
2022-11-16T12:42:34.623Z,1.58
2022-11-16T12:45:27.626Z,1.50
2022-11-16T12:48:23.923Z,1.10
2022-11-16T12:50:56.629Z,1.00
2022-11-16T12:53:52.550Z,1.10
2022-11-16T12:56:49.101Z,1.10
2022-11-16T12:59:35.852Z,1.30
2022-11-16T13:02:32.864Z,1.45
2022-11-16T13:05:21.735Z,1.20
2022-11-16T13:07:53.524Z,1.10
2022-11-16T13:10:24.708Z,1.60
2022-11-16T13:13:09.034Z,1.10
2022-11-16T13:15:43.281Z,1.20
2022-11-16T13:18:16.387Z,0.80
2022-11-16T13:20:56.946Z,1.30
2022-11-16T13:23:51.715Z,1.20
2022-11-16T13:26:40.750Z,1.50
2022-11-16T13:29:32.267Z,1.15
2022-11-16T13:32:35.052Z,0.90
2022-11-16T13:35:05.340Z,1.10
2022-11-16T13:37:38.181Z,1.00
2022-11-16T13:40:05.145Z,1.10
2022-11-16T13:42:38.921Z,1.10
2022-11-16T13:45:26.026Z,1.63
2022-11-16T13:47:58.131Z,2.63
2022-11-16T13:50:37.854Z,2.85
2022-11-16T13:56:07.094Z,2.55
2022-11-16T13:58:37.121Z,2.33
2022-11-16T14:01:06.137Z,1.75
2022-11-16T14:03:41.471Z,2.38
2022-11-16T14:06:20.295Z,1.88
2022-11-16T14:08:51.906Z,1.77
2022-11-16T14:11:38.793Z,2.28
2022-11-16T14:14:12.892Z,2.28
2022-11-16T14:16:48.327Z,3.50
2022-11-16T14:19:44.360Z,2.70
2022-11-16T14:22:28.555Z,1.63
2022-11-16T14:25:02.566Z,1.92
2022-11-16T14:27:48.104Z,1.48
2022-11-16T14:30:24.763Z,1.70
2022-11-16T14:32:54.785Z,1.95
2022-11-16T14:35:35.190Z,2.42
2022-11-16T14:38:07.136Z,1.80
2022-11-16T14:40:43.355Z,2.05
2022-11-16T14:43:21.810Z,1.70
2022-11-16T14:45:54.884Z,1.20
2022-11-16T14:48:26.009Z,1.48
2022-11-16T14:51:09.936Z,1.10
2022-11-16T14:53:40.625Z,1.70
2022-11-16T14:56:13.055Z,1.80
2022-11-16T14:58:40.012Z,1.73
2022-11-16T15:01:12.692Z,1.10
2022-11-16T15:03:48.432Z,1.50
2022-11-16T15:06:16.420Z,1.55
2022-11-16T15:08:48.900Z,1.65
2022-11-16T15:11:52.707Z,1.60
2022-11-16T15:14:36.624Z,1.33
2022-11-16T15:17:03.592Z,1.42
2022-11-16T15:19:32.042Z,1.55
2022-11-16T15:22:03.345Z,1.73
2022-11-16T15:24:32.587Z,1.70
2022-11-16T15:27:36.599Z,1.80
2022-11-16T15:30:31.147Z,1.90
2022-11-16T15:32:58.044Z,1.90
2022-11-16T15:35:30.992Z,2.10
2022-11-16T15:38:25.749Z,1.73
2022-11-16T15:41:18.683Z,1.90
2022-11-16T15:44:14.460Z,1.70
2022-11-16T15:46:42.379Z,1.73
2022-11-16T15:49:27.900Z,1.90
2022-11-16T15:51:54.616Z,2.05
2022-11-16T15:54:27.395Z,2.20
2022-11-16T15:57:07.827Z,2.40
2022-11-16T15:59:37.033Z,2.75
2022-11-16T16:02:04.357Z,2.90
2022-11-16T16:04:31.276Z,2.03
2022-11-16T16:07:00.105Z,1.90
2022-11-16T16:09:34.738Z,2.47
2022-11-16T16:12:21.495Z,2.53
2022-11-16T16:14:49.907Z,3.08
2022-11-16T16:17:28.357Z,3.55
2022-11-16T16:19:59.109Z,4.03
2022-11-16T16:22:30.572Z,4.30
2022-11-16T16:24:57.664Z,4.55
2022-11-16T16:27:26.558Z,4.10
2022-11-16T16:29:55.237Z,4.05
2022-11-16T16:32:32.061Z,4.18
2022-11-16T16:35:03.930Z,4.32
2022-11-16T16:37:32.371Z,3.80
2022-11-16T16:39:59.723Z,3.80
2022-11-16T16:42:26.491Z,4.18
2022-11-16T16:44:53.583Z,3.95
2022-11-16T16:47:20.976Z,3.80
2022-11-16T16:49:50.659Z,3.88
2022-11-16T16:52:17.860Z,3.90
2022-11-16T16:54:44.964Z,3.30
2022-11-16T16:57:20.658Z,3.40
2022-11-16T16:59:48.438Z,3.20
2022-11-16T17:02:16.332Z,3.28
2022-11-16T17:04:49.354Z,3.50
2022-11-16T17:07:16.432Z,4.70
2022-11-16T17:09:43.242Z,4.70
2022-11-16T17:12:13.192Z,4.43
2022-11-16T17:14:39.886Z,5.18
2022-11-16T17:17:06.609Z,4.22
2022-11-16T17:19:33.328Z,4.72
2022-11-16T17:22:00.275Z,3.80
2022-11-16T17:24:26.956Z,3.42
2022-11-16T17:26:53.883Z,4.22
2022-11-16T17:29:20.534Z,3.58
2022-11-16T17:31:48.064Z,3.42
2022-11-16T17:34:14.915Z,3.45
2022-11-16T17:36:42.703Z,3.10
2022-11-16T17:39:09.464Z,2.63
2022-11-16T17:41:36.510Z,2.45
2022-11-16T17:44:04.273Z,2.42
2022-11-16T17:46:31.088Z,2.40
2022-11-16T17:48:57.756Z,2.20
2022-11-16T17:51:25.615Z,2.47
2022-11-16T17:53:52.837Z,2.33
2022-11-16T17:56:22.048Z,2.40
2022-11-16T17:58:50.208Z,2.90
2022-11-16T18:01:17.233Z,2.60
2022-11-16T18:03:44.348Z,3.65
2022-11-16T18:06:13.994Z,3.40
2022-11-16T18:08:41.798Z,2.92
2022-11-16T18:11:09.951Z,3.08
2022-11-16T18:13:37.361Z,3.42
2022-11-16T18:16:06.269Z,3.45
2022-11-16T18:18:34.208Z,3.70
2022-11-16T18:21:01.568Z,3.55
2022-11-16T18:23:28.947Z,3.95
2022-11-16T18:25:56.160Z,3.50
2022-11-16T18:28:23.597Z,2.60
2022-11-16T18:30:50.388Z,2.50
2022-11-16T18:33:17.324Z,2.50
2022-11-16T18:35:44.372Z,2.47
2022-11-16T18:38:13.098Z,2.80
2022-11-16T18:40:40.785Z,2.67
2022-11-16T18:43:12.997Z,3.10
2022-11-16T18:45:39.702Z,3.00
2022-11-16T18:48:06.983Z,2.80
2022-11-16T18:50:33.732Z,3.20
2022-11-16T18:53:00.392Z,3.60
2022-11-16T18:55:27.034Z,3.00
2022-11-16T18:57:53.669Z,2.90
2022-11-16T19:00:20.744Z,3.67
2022-11-16T19:02:47.399Z,3.55
2022-11-16T19:05:14.095Z,2.38
2022-11-16T19:07:40.958Z,2.60
2022-11-16T19:10:08.429Z,2.40
2022-11-16T19:12:35.091Z,3.05
2022-11-16T19:15:01.792Z,3.50
2022-11-16T19:17:28.496Z,3.50
2022-11-16T19:19:55.159Z,4.10
2022-11-16T19:22:21.809Z,3.30
2022-11-16T19:24:48.491Z,3.40
2022-11-16T19:27:16.616Z,3.50
2022-11-16T19:29:43.478Z,4.10
2022-11-16T19:32:10.148Z,4.60
2022-11-16T19:34:36.803Z,5.90
2022-11-16T19:37:03.693Z,7.00
2022-11-16T19:39:30.394Z,7.47
2022-11-16T19:41:57.071Z,6.78
2022-11-16T19:44:24.126Z,4.68
2022-11-16T19:46:53.335Z,3.80
2022-11-16T19:49:21.757Z,3.90
2022-11-16T19:51:49.345Z,4.50
2022-11-16T19:54:16.032Z,5.00
2022-11-16T19:56:43.422Z,5.05
2022-11-16T19:59:10.467Z,4.00
2022-11-16T20:01:37.132Z,5.13
2022-11-16T20:04:04.552Z,5.20
2022-11-16T20:06:33.603Z,4.35
2022-11-16T20:09:04.105Z,4.88
2022-11-16T20:11:34.047Z,5.32
2022-11-16T20:14:01.760Z,6.00
2022-11-16T20:16:36.983Z,6.72
2022-11-16T20:19:05.314Z,7.80
2022-11-16T20:21:34.511Z,7.63
2022-11-16T20:24:06.467Z,7.10
2022-11-16T20:26:34.705Z,6.45
2022-11-16T20:29:01.490Z,5.75
2022-11-16T20:31:33.655Z,7.20
2022-11-16T20:34:03.086Z,5.78
2022-11-16T20:36:31.397Z,4.50
2022-11-16T20:38:59.017Z,6.25
2022-11-16T20:41:30.691Z,4.85
2022-11-16T20:43:59.093Z,4.30
2022-11-16T20:46:28.442Z,5.40
2022-11-16T20:48:57.027Z,5.88
2022-11-16T20:51:23.931Z,6.88
2022-11-16T20:53:50.856Z,6.20
2022-11-16T20:56:19.239Z,5.30
2022-11-16T20:58:46.722Z,5.57
2022-11-16T21:01:33.603Z,5.50
2022-11-16T21:04:05.409Z,6.30
2022-11-16T21:06:33.172Z,7.95
2022-11-16T21:09:00.306Z,10.68
2022-11-16T21:11:29.935Z,12.80
2022-11-16T21:14:15.274Z,16.83
2022-11-16T21:16:41.930Z,18.77
2022-11-16T21:19:08.933Z,17.15
2022-11-16T21:21:35.737Z,14.68
2022-11-16T21:24:02.511Z,13.00
2022-11-16T21:26:31.170Z,12.60
2022-11-16T21:28:59.246Z,9.52
2022-11-16T21:31:31.709Z,10.77
2022-11-16T21:34:02.278Z,12.15
2022-11-16T21:36:30.898Z,14.32
2022-11-16T21:39:00.889Z,13.13
2022-11-16T21:41:27.679Z,14.10
2022-11-16T21:43:54.514Z,13.48
2022-11-16T21:46:24.620Z,12.65
2022-11-16T21:48:52.780Z,10.13
2022-11-16T21:51:21.675Z,11.93
2022-11-16T21:53:48.812Z,11.52
2022-11-16T21:56:17.590Z,9.65
2022-11-16T21:58:45.192Z,8.15
2022-11-16T22:01:12.893Z,8.18
2022-11-16T22:03:40.276Z,8.23
2022-11-16T22:06:30.691Z,6.65
2022-11-16T22:08:57.370Z,7.80
2022-11-16T22:11:24.109Z,8.40
2022-11-16T22:13:50.863Z,7.80
2022-11-16T22:16:21.139Z,7.03
2022-11-16T22:18:47.931Z,7.93
2022-11-16T22:21:14.636Z,8.73
2022-11-16T22:23:41.704Z,9.80
2022-11-16T22:26:11.610Z,14.63
2022-11-16T22:28:39.411Z,12.63
2022-11-16T22:31:14.439Z,11.48
2022-11-16T22:33:41.613Z,16.10
2022-11-16T22:36:10.534Z,16.00
2022-11-16T22:38:37.944Z,15.50
2022-11-16T22:41:04.913Z,13.95
2022-11-16T22:43:32.610Z,14.15
2022-11-16T22:46:04.458Z,8.00
2022-11-16T22:48:36.622Z,6.00
2022-11-16T22:51:10.883Z,7.75
2022-11-16T22:53:38.085Z,10.18
2022-11-16T22:56:07.191Z,10.38
2022-11-16T22:58:34.935Z,11.20
2022-11-16T23:01:01.784Z,11.32
2022-11-16T23:03:29.028Z,9.18
2022-11-16T23:05:55.778Z,8.20
2022-11-16T23:08:25.028Z,8.65
2022-11-16T23:11:23.589Z,9.70
2022-11-16T23:14:09.578Z,8.75
2022-11-16T23:16:36.500Z,11.82
2022-11-16T23:19:03.516Z,14.07
2022-11-16T23:21:48.920Z,13.05
2022-11-16T23:24:34.181Z,12.35
2022-11-16T23:27:22.963Z,16.88
2022-11-16T23:29:49.905Z,14.20
2022-11-16T23:32:16.580Z,12.65
2022-11-16T23:34:43.274Z,13.18
2022-11-16T23:37:10.188Z,13.93
2022-11-16T23:39:36.959Z,12.57
2022-11-16T23:42:22.434Z,13.10
2022-11-16T23:44:49.092Z,11.07
2022-11-16T23:47:15.908Z,12.25
2022-11-16T23:49:42.587Z,13.40
2022-11-16T23:52:09.316Z,12.13
2022-11-16T23:54:36.039Z,9.80
2022-11-16T23:57:02.752Z,7.78
2022-11-16T23:59:29.434Z,7.60
